Agudos do Sul, Brazil
Current Conditions -  °F | °C
As of 1:00 AM on Monday 20 Oct 2014 (Local Time) from SBCT Reporting Station
Broken Clouds Broken Clouds  
Wind Chill: 61°   Ceiling: 700
Heat Index: 61°   Visibility: 4mi
Dew Point: 59°   Wind: 2mph
Humidity: 94%   Direction: 110°ESE
Pressure: 30.03"   Gusts: NA
Location:  25.99°S, 49.34°W
Report Text: SBCT 200400Z 11002KT 7000 BKN007 16/15 Q1017
Loading
Personal Weather Stations






























Interactive Weather Map
Tropical Storm Tracking
New forecast layout! Learn more

10-Day Weather Forecast

Advertisements
Track Severe Weather on mobile